Greenville, Wisconsin
Current Conditions -  °F | °C
As of 5:22 AM on Friday 24 Oct 2014 (Local Time) from KATW Reporting Station
Haze Haze  
Wind Chill: 44°   Ceiling: 200
Heat Index: 46°   Visibility: 3mi
Dew Point: 46°   Wind: 5mph
Humidity: 100%   Direction: NA
Pressure: 30.03"   Gusts: NA
Location:  44.3°N, 88.54°W
Report Text: KATW 241022Z VRB04KT 3SM BR VV002 08/08 A3003 RMK FIRST
Loading
Personal Weather Stations






























Interactive Weather Map
Tropical Storm Tracking
New forecast layout! Learn more

10-Day Weather Forecast

Advertisements
Track Severe Weather on mobile